Terminal Aerodrome Forecast
Issued by NWS

Home | Current Version | Previous Version | Text Only | Print | Product List | Glossary On
Versions: 1 2 3 4 5 6 7 8 9 10 11 12 13 14 15 16
000
FTUS46 KPDT 222300
TAFDLS
TAF
KDLS 222320Z 2300/2324 32006KT P6SM -SHRA OVC080
     FM230600 VRB04KT P6SM -RA OVC035
     FM232000 31010KT P6SM -SHRA BKN040 OVC080=

USA.gov is the U.S. government's official web portal to all federal, state and local government web resources and services.